Terminal Aerodrome Forecast
Issued by NWS

Home | Current Version | Previous Version | Text Only | Print | Product List | Glossary On
Versions: 1 2 3 4 5 6 7 8 9 10 11 12 13 14 15 16 17 18 19 20 21 22 23 24
941
FTUS41 KPHI 061406 AAA
TAFMIV
TAF AMD
KMIV 061406Z 0614/0712 03008KT 5SM -RA BR SCT008 OVC025
      TEMPO 0614/0616 3SM RA BR BKN008 OVC012
     FM061700 03008KT 5SM BR VCSH OVC009
     FM070000 05006KT 5SM BR VCSH OVC009=

USA.gov is the U.S. government's official web portal to all federal, state and local government web resources and services.